Time;durP1;ratioP1;P1;durP2;ratioP2;P2;SDS_P1;SDS_P2;PMS_P1;PMS_P2;Temp;Humidity;BMP_temperature;BMP_pressure;BME280_temperature;BME280_humidity;BME280_pressure;Samples;Min_cycle;Max_cycle;Signal;HPM_P1;HPM_P2
2022/05/08 00:02:29;;;;;;;8.60;5.95;;;;;;;15.50;67.88;99704.75;4454433;32;35249;-73
2022/05/08 00:04:58;;;;;;;10.68;6.28;;;;;;;15.15;69.16;99695.97;4454147;32;34294;-73
2022/05/08 00:07:26;;;;;;;8.82;5.43;;;;;;;15.30;68.77;99694.75;4466012;32;34241;-73
2022/05/08 00:09:54;;;;;;;12.23;5.87;;;;;;;15.00;69.18;99694.59;4470892;32;34019;-73
2022/05/08 00:12:22;;;;;;;8.23;5.12;;;;;;;15.80;66.78;99687.38;4443708;32;34420;-73
2022/05/08 00:14:50;;;;;;;7.65;5.25;;;;;;;15.29;68.39;99690.41;4428481;32;34380;-73
2022/05/08 00:17:18;;;;;;;8.85;5.75;;;;;;;15.07;69.06;99684.81;4455321;32;33432;-75
2022/05/08 00:19:47;;;;;;;8.60;5.80;;;;;;;15.08;69.24;99689.16;4442531;32;33964;-73
2022/05/08 00:22:15;;;;;;;8.90;5.87;;;;;;;15.22;67.77;99686.22;4465378;32;35273;-76
2022/05/08 00:25:03;;;;;;;10.48;5.72;;;;;;;14.42;72.01;99686.22;4459101;32;34392;-73
2022/05/08 00:27:31;;;;;;;8.85;6.05;;;;;;;14.74;70.49;99682.94;4456432;32;34362;-73
2022/05/08 00:29:59;;;;;;;8.80;5.90;;;;;;;14.77;69.43;99681.97;4455329;32;34770;-73
2022/05/08 00:32:28;;;;;;;11.10;6.15;;;;;;;14.66;70.05;99676.13;4454610;32;35044;-73
2022/05/08 00:34:56;;;;;;;9.82;5.57;;;;;;;14.33;71.07;99679.41;4453889;32;34330;-73
2022/05/08 00:37:23;;;;;;;10.65;6.03;;;;;;;14.23;71.05;99672.63;4442497;32;33402;-73
2022/05/08 00:39:52;;;;;;;10.25;6.72;;;;;;;13.97;72.34;99673.16;4470610;32;34642;-74
2022/05/08 00:42:20;;;;;;;8.82;6.37;;;;;;;13.23;75.00;99674.41;4469350;32;35068;-76
2022/05/08 00:44:47;;;;;;;8.45;5.85;;;;;;;13.72;73.64;99668.38;4456386;32;33727;-73
2022/05/08 00:47:15;;;;;;;9.77;6.18;;;;;;;13.78;73.58;99676.13;4458980;32;33587;-73
2022/05/08 00:49:43;;;;;;;8.40;5.85;;;;;;;14.02;71.72;99666.06;4453257;32;33976;-73
2022/05/08 00:52:15;;;;;;;8.50;5.97;;;;;;;13.50;74.07;99667.91;4450720;32;35960;-74
2022/05/08 00:54:43;;;;;;;8.95;5.80;;;;;;;13.93;72.58;99661.03;4461174;32;35198;-73
2022/05/08 00:57:12;;;;;;;8.02;5.80;;;;;;;14.15;70.77;99669.28;4455321;32;33445;-73
2022/05/08 00:59:39;;;;;;;9.30;6.40;;;;;;;14.33;69.59;99668.06;4470516;32;34026;-73
2022/05/08 01:02:08;;;;;;;9.10;5.80;;;;;;;14.17;70.16;99671.00;4446576;32;35016;-73
2022/05/08 01:04:35;;;;;;;12.43;6.93;;;;;;;13.87;71.66;99666.34;4454864;32;34619;-73
2022/05/08 01:07:04;;;;;;;11.10;6.95;;;;;;;13.19;75.43;99672.75;4448737;32;33523;-73
2022/05/08 01:09:32;;;;;;;9.48;5.95;;;;;;;13.00;76.80;99662.56;4470273;32;34679;-73
2022/05/08 01:12:02;;;;;;;10.57;6.03;;;;;;;13.87;72.41;99666.34;4455370;32;35002;-73
2022/05/08 01:14:30;;;;;;;11.15;7.07;;;;;;;12.94;75.23;99662.69;4470382;32;34418;-73
2022/05/08 01:16:58;;;;;;;9.43;6.20;;;;;;;13.62;73.08;99665.06;4466212;32;33493;-73
2022/05/08 01:19:25;;;;;;;10.60;6.62;;;;;;;12.97;74.61;99661.75;4470329;32;34594;-73
2022/05/08 01:21:53;;;;;;;9.77;6.22;;;;;;;12.90;74.78;99661.00;4462292;32;35177;-73
2022/05/08 01:24:22;;;;;;;12.35;6.45;;;;;;;13.26;73.96;99667.38;4461330;32;34693;-73
2022/05/08 01:26:50;;;;;;;8.40;5.65;;;;;;;13.13;73.73;99658.03;4463027;32;34167;-73
2022/05/08 01:29:18;;;;;;;10.45;6.45;;;;;;;13.60;71.87;99668.59;4453471;32;34722;-73
2022/05/08 01:31:46;;;;;;;9.82;6.45;;;;;;;13.07;74.12;99658.09;4454259;32;35192;-73
2022/05/08 01:34:14;;;;;;;9.85;5.82;;;;;;;13.14;72.87;99670.19;4453809;32;34356;-73
2022/05/08 01:36:42;;;;;;;9.25;6.22;;;;;;;13.16;72.89;99664.94;4454446;32;34470;-73
2022/05/08 01:39:10;;;;;;;10.60;6.32;;;;;;;13.13;73.15;99667.59;4456067;32;33961;-76
2022/05/08 01:41:37;;;;;;;9.68;6.72;;;;;;;13.28;73.00;99662.12;4440911;32;34505;-73
2022/05/08 01:44:06;;;;;;;9.77;6.82;;;;;;;13.35;72.00;99669.00;4456108;32;35266;-75
2022/05/08 01:46:34;;;;;;;8.07;5.60;;;;;;;12.73;74.87;99669.06;4450619;32;34267;-73
2022/05/08 01:49:01;;;;;;;9.35;6.03;;;;;;;13.29;72.00;99666.47;4453677;32;34025;-73
2022/05/08 01:51:29;;;;;;;8.90;5.78;;;;;;;12.76;73.23;99662.94;4453473;32;35874;-73
2022/05/08 01:53:57;;;;;;;10.40;6.72;;;;;;;12.49;74.06;99670.25;4454535;32;35052;-73
2022/05/08 01:56:25;;;;;;;10.07;6.80;;;;;;;12.22;76.13;99663.66;4453255;32;33364;-73
2022/05/08 01:58:53;;;;;;;9.80;5.95;;;;;;;12.90;74.26;99669.69;4454351;32;33801;-73
2022/05/08 02:01:21;;;;;;;11.15;7.18;;;;;;;12.62;73.85;99664.00;4453752;32;35052;-73
2022/05/08 02:03:49;;;;;;;9.32;6.35;;;;;;;12.45;75.02;99663.38;4454377;32;34429;-73
2022/05/08 02:06:18;;;;;;;9.23;6.22;;;;;;;12.56;74.10;99661.47;4455128;32;33595;-72
2022/05/08 02:08:46;;;;;;;10.07;6.10;;;;;;;12.40;76.21;99659.94;4455851;32;33797;-73
2022/05/08 02:11:14;;;;;;;9.57;6.70;;;;;;;12.08;76.62;99663.81;4445925;32;34969;-72
2022/05/08 02:13:42;;;;;;;10.68;6.43;;;;;;;11.70;79.51;99659.84;4454158;32;34338;-73
2022/05/08 02:16:11;;;;;;;9.82;5.90;;;;;;;12.31;76.25;99660.94;4452744;32;33328;-73
2022/05/08 02:18:39;;;;;;;9.18;5.97;;;;;;;12.65;74.05;99661.34;4469737;32;33931;-73
2022/05/08 02:21:07;;;;;;;10.40;6.12;;;;;;;12.56;75.46;99655.38;4454715;32;35922;-72
2022/05/08 02:23:34;;;;;;;9.98;6.25;;;;;;;12.11;76.58;99655.97;4466670;32;34437;-73
2022/05/08 02:26:03;;;;;;;9.80;6.85;;;;;;;12.31;76.24;99659.16;4467608;32;34591;-73
2022/05/08 02:28:31;;;;;;;9.82;5.68;;;;;;;11.66;80.15;99656.41;4462814;32;33860;-73
2022/05/08 02:30:59;;;;;;;11.07;6.87;;;;;;;12.07;77.48;99660.34;4453904;32;35064;-73
2022/05/08 02:33:27;;;;;;;9.10;6.28;;;;;;;11.98;78.70;99656.97;4454151;32;34303;-73
2022/05/08 02:35:55;;;;;;;10.80;6.95;;;;;;;11.85;78.58;99654.47;4439699;32;32673;-73
2022/05/08 02:38:22;;;;;;;9.75;6.55;;;;;;;11.44;80.76;99657.50;4453341;32;33988;-73
2022/05/08 02:40:53;;;;;;;11.25;6.62;;;;;;;11.94;78.30;99658.75;4453695;32;35972;-72
2022/05/08 02:43:21;;;;;;;9.25;6.47;;;;;;;12.23;77.57;99660.16;4467220;32;35257;-73
2022/05/08 02:45:49;;;;;;;10.63;6.22;;;;;;;12.57;75.14;99670.19;4467501;32;33476;-73
2022/05/08 02:48:17;;;;;;;10.40;6.50;;;;;;;12.08;77.21;99666.44;4453283;32;34739;-75
2022/05/08 02:50:45;;;;;;;9.30;5.72;;;;;;;11.87;77.26;99668.34;4453472;32;35826;-73
2022/05/08 02:53:13;;;;;;;9.00;5.97;;;;;;;12.21;76.72;99673.25;4453112;32;34547;-73
2022/05/08 02:58:33;;;;;;;12.57;6.75;;;;;;;11.65;80.35;99679.91;4467314;32;34878;-72
2022/05/08 03:01:04;;;;;;;9.18;6.20;;;;;;;11.59;81.18;99680.81;4445436;32;35828;-73
2022/05/08 03:03:32;;;;;;;10.68;7.20;;;;;;;11.56;79.74;99678.25;4455808;32;34452;-73
2022/05/08 03:06:00;;;;;;;9.85;6.32;;;;;;;11.93;78.84;99676.16;4437434;32;31987;-72
2022/05/08 03:08:28;;;;;;;9.45;6.40;;;;;;;12.33;76.51;99674.81;4456037;32;33424;-73
2022/05/08 03:13:42;;;;;;;8.53;6.10;;;;;;;11.42;83.80;99682.72;4458900;32;37270;-72
2022/05/08 03:16:11;;;;;;;9.93;6.62;;;;;;;11.90;79.82;99677.91;4443706;32;33776;-72
2022/05/08 03:18:40;;;;;;;13.68;6.57;;;;;;;12.29;78.28;99679.22;4443605;32;34065;-72
2022/05/08 03:21:09;;;;;;;8.68;6.15;;;;;;;12.09;78.74;99679.47;4457313;32;35142;-72
2022/05/08 03:23:42;;;;;;;10.02;6.05;;;;;;;12.22;77.66;99684.56;4469988;32;35243;-73
2022/05/08 03:26:10;;;;;;;10.10;5.60;;;;;;;12.44;75.85;99680.78;4466865;32;33616;-73
2022/05/08 03:28:38;;;;;;;10.63;6.37;;;;;;;11.64;78.40;99679.03;4455183;32;33661;-72
2022/05/08 03:31:07;;;;;;;9.02;5.65;;;;;;;12.26;76.86;99683.63;4469600;32;34915;-72
2022/05/08 03:33:36;;;;;;;9.10;5.62;;;;;;;12.51;75.40;99685.06;4442290;32;34415;-73
2022/05/08 03:36:06;;;;;;;9.10;5.55;;;;;;;11.90;79.10;99690.97;4455147;32;34274;-73
2022/05/08 03:38:35;;;;;;;9.68;5.82;;;;;;;12.15;77.48;99691.59;4455063;32;33892;-72
2022/05/08 03:41:02;;;;;;;8.45;5.78;;;;;;;12.38;75.49;99693.06;4455455;32;34856;-73
2022/05/08 03:43:30;;;;;;;8.48;5.60;;;;;;;11.94;78.40;99703.97;4442991;32;35198;-73
2022/05/08 03:45:58;;;;;;;9.57;5.93;;;;;;;12.09;77.19;99697.75;4441038;32;33511;-72
2022/05/08 03:48:26;;;;;;;8.65;5.82;;;;;;;12.29;76.55;99697.50;4467258;32;33785;-72
2022/05/08 03:50:54;;;;;;;9.80;5.85;;;;;;;12.52;75.82;99701.56;4470866;32;34897;-75
2022/05/08 03:53:21;;;;;;;9.27;6.12;;;;;;;12.10;77.77;99703.81;4457768;32;35324;-72
2022/05/08 03:55:49;;;;;;;9.88;5.93;;;;;;;12.04;77.76;99714.34;4454113;32;31866;-76
2022/05/08 03:58:17;;;;;;;10.52;6.10;;;;;;;11.77;80.21;99713.72;4451525;32;34753;-75
2022/05/08 04:00:45;;;;;;;9.30;6.05;;;;;;;12.24;79.95;99716.72;4449631;32;34285;-77
2022/05/08 04:03:13;;;;;;;8.50;5.45;;;;;;;12.32;78.53;99718.37;4440205;32;35424;-77
2022/05/08 04:05:41;;;;;;;9.57;5.68;;;;;;;11.87;80.54;99719.69;4452106;32;33532;-77
2022/05/08 04:08:09;;;;;;;8.68;5.87;;;;;;;12.13;81.04;99724.69;4463861;32;33895;-73
2022/05/08 04:10:39;;;;;;;13.27;6.70;;;;;;;12.97;77.19;99714.03;4453740;32;35137;-76
2022/05/08 04:13:06;;;;;;;9.27;5.62;;;;;;;13.33;76.34;99723.09;4440555;32;34433;-76
2022/05/08 04:18:21;;;;;;;9.95;6.15;;;;;;;12.94;80.03;99724.56;4450606;32;33788;-76
2022/05/08 04:20:48;;;;;;;9.30;5.97;;;;;;;13.55;78.92;99725.38;4449175;32;36137;-73
2022/05/08 04:26:03;;;;;;;8.75;5.20;;;;;;;13.72;78.82;99730.31;4455832;32;33922;-78
2022/05/08 04:28:30;;;;;;;9.10;6.05;;;;;;;14.50;75.53;99731.44;4450699;32;33223;-75
2022/05/08 04:30:58;;;;;;;8.63;5.50;;;;;;;14.21;77.44;99732.06;4439919;32;35088;-77
2022/05/08 04:33:26;;;;;;;9.38;6.12;;;;;;;14.40;78.47;99735.19;4455709;32;34812;-77
2022/05/08 04:35:54;;;;;;;8.13;5.40;;;;;;;14.92;75.19;99734.09;4442633;32;33417;-73
2022/05/08 04:38:21;;;;;;;8.98;6.05;;;;;;;15.34;73.71;99731.38;4440478;32;34788;-73
2022/05/08 04:40:49;;;;;;;7.70;5.30;;;;;;;15.39;73.58;99733.00;4460434;32;35038;-73
2022/05/08 04:43:17;;;;;;;7.32;5.62;;;;;;;14.57;79.73;99735.66;4458955;32;34519;-74
2022/05/08 04:45:45;;;;;;;6.85;4.90;;;;;;;15.05;76.95;99739.06;4452268;32;33456;-74
2022/05/08 04:48:13;;;;;;;9.20;6.00;;;;;;;15.35;75.87;99738.34;4457918;32;34755;-74
2022/05/08 04:50:41;;;;;;;10.18;5.30;;;;;;;15.65;76.57;99735.88;4439823;32;36117;-77
2022/05/08 04:53:08;;;;;;;8.88;6.00;;;;;;;15.83;74.57;99734.56;4443513;32;33836;-73
2022/05/08 04:55:36;;;;;;;10.07;5.18;;;;;;;15.86;77.07;99741.50;4454976;32;33759;-72
2022/05/08 04:58:04;;;;;;;8.23;5.90;;;;;;;15.69;78.18;99744.53;4449191;32;33900;-74
2022/05/08 05:00:32;;;;;;;8.38;5.68;;;;;;;16.22;76.27;99747.56;4455472;32;35859;-73
2022/05/08 05:03:01;;;;;;;9.82;5.95;;;;;;;16.91;71.43;99742.09;4470525;32;34462;-73
2022/05/08 05:05:29;;;;;;;8.38;5.50;;;;;;;17.00;69.65;99746.22;4470317;32;33357;-73
2022/05/08 05:07:56;;;;;;;8.25;6.07;;;;;;;16.91;66.90;99747.38;4456230;32;33974;-75
2022/05/08 05:10:24;;;;;;;9.38;5.90;;;;;;;17.54;67.46;99742.75;4453608;32;35109;-74
2022/05/08 05:12:53;;;;;;;8.88;6.12;;;;;;;16.90;65.37;99755.28;4442144;32;33356;-73
2022/05/08 05:15:21;;;;;;;8.30;5.78;;;;;;;16.81;71.67;99753.78;4456415;32;33447;-74
2022/05/08 05:17:49;;;;;;;7.72;5.05;;;;;;;17.01;70.94;99747.94;4466577;32;34743;-73
2022/05/08 05:20:17;;;;;;;6.82;4.68;;;;;;;17.71;64.14;99760.59;4470271;32;35879;-75
2022/05/08 05:22:44;;;;;;;11.27;5.07;;;;;;;17.63;63.62;99758.25;4468874;32;34510;-75
2022/05/08 05:25:12;;;;;;;8.27;5.65;;;;;;;18.52;59.17;99761.34;4470381;32;33299;-75
2022/05/08 05:27:40;;;;;;;7.93;5.45;;;;;;;18.76;60.56;99752.53;4455402;32;34054;-75
2022/05/08 05:30:09;;;;;;;9.60;5.60;;;;;;;18.11;59.91;99764.56;4453489;32;35034;-74
2022/05/08 05:32:39;;;;;;;8.98;5.90;;;;;;;18.43;61.08;99765.19;4450801;32;34572;-75
2022/05/08 05:35:07;;;;;;;9.13;5.20;;;;;;;18.91;60.13;99768.72;4454520;32;32586;-76
2022/05/08 05:37:35;;;;;;;8.27;5.62;;;;;;;18.53;59.17;99765.69;4440395;32;33142;-75
2022/05/08 05:40:03;;;;;;;7.50;5.20;;;;;;;19.25;58.34;99765.66;4453950;32;34988;-76
2022/05/08 05:42:37;;;;;;;8.95;5.45;;;;;;;19.50;57.40;99765.50;4458052;32;34665;-75
2022/05/08 05:45:06;;;;;;;10.48;5.35;;;;;;;20.12;55.22;99767.38;4456194;32;34495;-74
2022/05/08 05:50:21;;;;;;;;;;;;;;;20.47;55.40;99773.75;4441794;32;35996;-73
2022/05/08 05:52:50;;;;;;;7.87;5.40;;;;;;;19.67;56.02;99777.16;4455328;32;34912;-73
2022/05/08 05:55:18;;;;;;;9.77;4.95;;;;;;;20.56;54.46;99777.78;4448604;32;33654;-73
2022/05/08 05:57:46;;;;;;;8.55;5.32;;;;;;;20.85;53.48;99781.78;4443653;32;34879;-74
2022/05/08 06:00:16;;;;;;;8.90;4.95;;;;;;;20.71;52.57;99776.28;4457482;32;35055;-73
2022/05/08 06:02:44;;;;;;;7.12;4.78;;;;;;;20.44;53.03;99779.22;4441338;32;35248;-74
2022/05/08 06:05:15;;;;;;;7.10;4.37;;;;;;;21.03;52.12;99772.13;4453868;32;33445;-74
2022/05/08 06:07:45;;;;;;;8.57;5.65;;;;;;;21.65;50.25;99769.19;4443806;32;33858;-73
2022/05/08 06:10:14;;;;;;;8.73;5.10;;;;;;;20.88;52.73;99773.72;4446274;32;34956;-77
2022/05/08 06:12:43;;;;;;;8.23;5.10;;;;;;;21.50;49.80;99778.78;4468310;32;35091;-79
2022/05/08 06:15:10;;;;;;;7.37;5.10;;;;;;;21.47;49.03;99771.81;4469698;32;33396;-74
2022/05/08 06:17:39;;;;;;;6.87;4.95;;;;;;;21.57;47.92;99777.53;4453796;32;34859;-74
2022/05/08 06:20:07;;;;;;;7.40;4.53;;;;;;;22.05;49.77;99783.97;4465424;32;35745;-77
2022/05/08 06:22:35;;;;;;;8.32;5.40;;;;;;;22.26;47.28;99775.84;4468370;32;34429;-76
2022/05/08 06:25:04;;;;;;;8.63;5.43;;;;;;;21.87;47.96;99774.31;4469648;32;33617;-77
2022/05/08 06:27:32;;;;;;;7.62;4.87;;;;;;;21.67;48.56;99778.81;4442567;32;33440;-77
2022/05/08 06:29:59;;;;;;;8.25;5.28;;;;;;;22.93;44.33;99776.72;4445660;32;35153;-74
2022/05/08 06:32:29;;;;;;;7.43;5.20;;;;;;;23.00;45.06;99782.53;4453067;32;34650;-76
2022/05/08 06:35:15;;;;;;;7.00;4.97;;;;;;;23.63;42.29;99784.31;4455577;32;34328;-75
2022/05/08 06:37:44;;;;;;;7.97;5.12;;;;;;;24.03;40.03;99782.88;4455535;32;33914;-83
2022/05/08 06:40:12;;;;;;;6.80;4.80;;;;;;;23.45;40.94;99778.25;4455837;32;35040;-75
2022/05/08 06:42:39;;;;;;;6.72;4.80;;;;;;;23.03;42.91;99782.34;4456511;32;34429;-74
2022/05/08 06:45:08;;;;;;;8.25;4.87;;;;;;;23.94;41.36;99780.75;4471102;32;33556;-80
2022/05/08 06:47:36;;;;;;;7.10;4.95;;;;;;;24.06;39.50;99783.66;4468534;32;34004;-80
2022/05/08 06:50:04;;;;;;;10.48;4.60;;;;;;;23.56;41.19;99780.31;4455852;32;35138;-81
2022/05/08 06:52:32;;;;;;;9.35;4.62;;;;;;;23.18;41.51;99781.53;4455262;32;34531;-73
2022/05/08 06:55:00;;;;;;;7.80;4.95;;;;;;;22.64;42.58;99783.59;4455716;32;33872;-74
2022/05/08 06:57:28;;;;;;;7.20;4.72;;;;;;;22.98;44.02;99785.28;4454129;32;34014;-73
2022/05/08 07:02:42;;;;;;;6.75;4.65;;;;;;;23.44;41.92;99784.53;4456936;32;35392;-73
2022/05/08 07:05:10;;;;;;;7.43;4.87;;;;;;;23.89;41.27;99780.19;4471302;32;33334;-74
2022/05/08 07:07:38;;;;;;;7.80;5.18;;;;;;;23.80;41.26;99780.69;4442035;32;33952;-80
2022/05/08 07:10:06;;;;;;;7.18;4.70;;;;;;;23.74;41.63;99783.72;4455659;32;35099;-75
2022/05/08 07:12:36;;;;;;;8.30;5.50;;;;;;;25.01;38.00;99779.59;4455484;32;35348;-81
2022/05/08 07:15:04;;;;;;;9.02;5.30;;;;;;;25.07;39.43;99780.09;4457349;32;33491;-78
2022/05/08 07:17:32;;;;;;;9.07;4.85;;;;;;;24.51;42.10;99785.34;4450175;32;33911;-79
2022/05/08 07:20:02;;;;;;;9.05;4.37;;;;;;;25.13;36.67;99782.38;4455520;32;35132;-76
2022/05/08 07:22:33;;;;;;;8.05;4.82;;;;;;;24.37;39.18;99786.19;4455277;32;34554;-74
2022/05/08 07:25:01;;;;;;;8.82;4.43;;;;;;;24.28;38.64;99778.72;4455441;32;33687;-75
2022/05/08 07:27:31;;;;;;;9.35;4.78;;;;;;;25.24;38.60;99783.50;4454396;32;33974;-74
2022/05/08 07:30:04;;;;;;;8.40;4.70;;;;;;;25.36;36.50;99782.72;4442294;32;35038;-79
2022/05/08 07:32:34;;;;;;;6.78;4.82;;;;;;;24.19;38.76;99781.97;4440550;32;34473;-74
2022/05/08 07:37:49;;;;;;;9.18;4.93;;;;;;;25.35;36.97;99791.66;4444586;32;34050;-75
2022/05/08 07:40:17;;;;;;;6.85;5.12;;;;;;;25.29;37.63;99792.06;4471037;32;35196;-80
2022/05/08 07:42:46;;;;;;;6.62;4.57;;;;;;;24.97;39.38;99793.16;4467575;32;34454;-74
2022/05/08 07:45:14;;;;;;;6.95;4.85;;;;;;;25.80;36.31;99792.28;4454327;32;34262;-80
2022/05/08 07:47:43;;;;;;;8.85;4.70;;;;;;;25.34;36.85;99795.28;4465692;32;33728;-75
2022/05/08 07:50:10;;;;;;;7.57;4.68;;;;;;;25.81;37.84;99793.97;4454621;32;35800;-73
2022/05/08 07:52:41;;;;;;;6.80;5.35;;;;;;;26.39;35.52;99788.31;4441345;32;32866;-76
2022/05/08 07:55:09;;;;;;;8.70;4.85;;;;;;;26.17;36.28;99794.28;4456949;32;32941;-82
2022/05/08 07:57:36;;;;;;;6.68;4.70;;;;;;;25.65;35.95;99793.28;4470207;32;34033;-74
2022/05/08 08:00:05;;;;;;;8.40;4.37;;;;;;;24.61;39.35;99798.97;4470779;32;33616;-80
2022/05/08 08:02:40;;;;;;;7.72;4.40;;;;;;;26.18;34.67;99796.84;4463215;32;35320;-74
2022/05/08 08:05:08;;;;;;;7.22;4.47;;;;;;;26.81;33.51;99797.00;4470605;32;35737;-82
2022/05/08 08:07:36;;;;;;;7.28;4.82;;;;;;;26.48;35.76;99795.69;4470731;32;34011;-79
2022/05/08 08:10:05;;;;;;;8.23;5.37;;;;;;;25.34;36.98;99797.94;4469973;32;32438;-80
2022/05/08 08:12:33;;;;;;;7.32;5.05;;;;;;;26.66;34.13;99799.75;4455530;32;34249;-80
2022/05/08 08:15:01;;;;;;;7.53;5.07;;;;;;;25.87;37.45;99798.91;4469440;32;34227;-80
2022/05/08 08:17:30;;;;;;;9.13;4.97;;;;;;;26.61;35.91;99793.91;4456876;32;34509;-77
2022/05/08 08:19:58;;;;;;;7.47;4.70;;;;;;;27.11;35.15;99801.94;4465798;32;35098;-80
2022/05/08 08:22:26;;;;;;;7.00;4.43;;;;;;;26.95;33.33;99796.84;4470826;32;35200;-80
2022/05/08 08:24:55;;;;;;;6.75;4.00;;;;;;;26.84;35.51;99815.44;4456111;32;33544;-81
2022/05/08 08:27:23;;;;;;;7.45;4.43;;;;;;;27.28;33.88;99802.56;4455146;32;33998;-81
2022/05/08 08:29:51;;;;;;;6.55;4.78;;;;;;;27.37;33.10;99802.75;4466196;32;35000;-74
2022/05/08 08:32:26;;;;;;;5.45;4.00;;;;;;;27.11;33.29;99814.44;4465790;32;34327;-80
2022/05/08 08:34:54;;;;;;;8.80;4.28;;;;;;;27.43;34.33;99806.81;4442336;32;33476;-75
2022/05/08 08:37:22;;;;;;;7.68;4.28;;;;;;;26.82;34.60;99818.22;4468094;32;33947;-80
2022/05/08 08:39:50;;;;;;;7.20;4.97;;;;;;;27.21;36.17;99812.81;4456798;32;35943;-75
2022/05/08 08:42:31;;;;;;;6.90;4.85;;;;;;;25.02;41.32;99816.81;4455111;32;35185;-80
2022/05/08 08:47:56;;;;;;;7.90;4.93;;;;;;;26.48;36.98;99819.72;4455078;32;33787;-77
2022/05/08 08:50:28;;;;;;;7.30;4.53;;;;;;;26.55;34.42;99815.66;4442009;32;35028;-74
2022/05/08 08:52:58;;;;;;;8.57;4.95;;;;;;;27.54;32.70;99814.03;4456709;32;35323;-74
2022/05/08 08:55:26;;;;;;;7.25;5.15;;;;;;;27.47;33.04;99818.13;4441173;32;34350;-74
2022/05/08 08:57:54;;;;;;;5.45;4.10;;;;;;;27.22;36.46;99810.03;4464336;32;33981;-74
2022/05/08 09:00:21;;;;;;;6.65;4.60;;;;;;;26.70;37.64;99804.91;4470404;32;35129;-75
2022/05/08 09:02:54;;;;;;;6.10;4.35;;;;;;;27.01;34.95;99804.41;4470364;32;34409;-74
2022/05/08 09:05:24;;;;;;;7.95;4.37;;;;;;;26.79;35.40;99805.13;4470473;32;34260;-79
2022/05/08 09:07:53;;;;;;;6.30;4.70;;;;;;;26.75;35.86;99810.78;4446076;32;34800;-80
2022/05/08 09:10:24;;;;;;;7.15;4.82;;;;;;;25.86;35.24;99807.84;4440023;32;34485;-80
2022/05/08 09:12:52;;;;;;;7.30;4.75;;;;;;;27.10;33.34;99815.41;4454811;32;33692;-81
2022/05/08 09:15:27;;;;;;;6.93;4.68;;;;;;;27.97;31.51;99810.84;4454404;32;33747;-81
2022/05/08 09:17:59;;;;;;;5.65;4.25;;;;;;;26.90;35.06;99812.38;4454830;32;35011;-81
2022/05/08 09:20:35;;;;;;;6.47;4.60;;;;;;;27.36;32.23;99817.09;4470059;32;35056;-75
2022/05/08 09:23:13;;;;;;;8.60;4.68;;;;;;;27.34;32.97;99808.31;4450768;32;34450;-74
2022/05/08 09:25:43;;;;;;;7.97;5.35;;;;;;;27.16;33.89;99810.50;4454338;32;33435;-76
2022/05/08 09:28:33;;;;;;;8.35;5.10;;;;;;;25.44;40.85;99809.72;4454185;32;34824;-80
2022/05/08 09:31:02;;;;;;;6.87;4.57;;;;;;;26.81;34.80;99803.19;4445587;32;249126;-74
2022/05/08 09:33:40;;;;;;;7.47;5.35;;;;;;;26.67;34.05;99804.16;4454168;32;34449;-81
2022/05/08 09:36:12;;;;;;;10.27;5.50;;;;;;;27.58;33.49;99802.13;4454558;32;33345;-80
2022/05/08 09:38:52;;;;;;;6.00;4.55;;;;;;;27.74;31.61;99800.03;4453480;32;33823;-76
2022/05/08 09:41:20;;;;;;;13.15;5.90;;;;;;;27.72;32.82;99803.78;4470161;32;35737;-80
2022/05/08 09:43:49;;;;;;;7.43;4.60;;;;;;;27.52;32.15;99802.59;4465032;32;35207;-78
2022/05/08 09:46:19;;;;;;;7.05;4.40;;;;;;;26.87;34.36;99797.38;4460133;32;33530;-81
2022/05/08 09:48:49;;;;;;;7.55;5.55;;;;;;;26.91;36.03;99790.00;4455177;32;34053;-81
2022/05/08 09:51:16;;;;;;;8.60;5.47;;;;;;;27.01;36.49;99795.56;4443270;32;35991;-83
2022/05/08 09:53:46;;;;;;;11.23;5.22;;;;;;;27.11;39.54;99798.41;4451668;32;35135;-78
2022/05/08 09:56:14;;;;;;;7.25;5.20;;;;;;;27.06;35.38;99790.72;4440581;32;34527;-82
2022/05/08 09:58:43;;;;;;;10.35;4.95;;;;;;;26.22;36.50;99795.66;4440196;32;33997;-81
2022/05/08 10:01:13;;;;;;;9.07;4.90;;;;;;;27.07;36.25;99786.22;4454346;32;35048;-77
2022/05/08 10:03:43;;;;;;;6.40;4.32;;;;;;;27.69;33.31;99791.50;4440086;32;33683;-84
2022/05/08 10:06:11;;;;;;;6.40;4.80;;;;;;;28.25;31.30;99787.31;4454189;32;34199;-79
2022/05/08 10:08:40;;;;;;;7.60;5.00;;;;;;;26.02;38.06;99785.50;4454713;32;34075;-84
2022/05/08 10:14:07;;;;;;;9.95;4.60;;;;;;;26.96;33.63;99782.50;4453683;32;34461;-81
2022/05/08 10:17:04;;;;;;;6.85;5.03;;;;;;;27.79;31.41;99770.22;4453106;32;33615;-82
2022/05/08 10:19:32;;;;;;;8.13;5.25;;;;;;;27.23;33.26;99778.78;4454625;32;34708;-79
2022/05/08 10:22:03;;;;;;;7.20;4.78;;;;;;;26.72;34.06;99774.44;4461481;32;35180;-84
2022/05/08 10:24:54;;;;;;;8.35;5.05;;;;;;;27.18;33.92;99772.97;4460983;32;33707;-81
2022/05/08 10:27:32;;;;;;;7.45;4.87;;;;;;;27.35;34.10;99764.56;4461216;32;33415;-81
2022/05/08 10:30:01;;;;;;;8.90;5.37;;;;;;;28.29;30.30;99772.69;4445032;32;34653;-80
2022/05/08 10:32:34;;;;;;;7.00;5.10;;;;;;;27.88;33.33;99769.53;4469459;32;35049;-82
2022/05/08 10:35:09;;;;;;;7.72;5.12;;;;;;;27.60;32.29;99771.63;4457689;32;34408;-79
2022/05/08 10:37:41;;;;;;;8.68;4.78;;;;;;;26.65;33.94;99768.69;4452753;32;32632;-75
2022/05/08 10:40:21;;;;;;;10.05;4.53;;;;;;;27.43;32.94;99764.84;4460469;32;34513;-80
2022/05/08 10:42:50;;;;;;;8.20;5.22;;;;;;;27.91;30.84;99768.47;4468128;32;35224;-84
2022/05/08 10:45:30;;;;;;;7.10;5.22;;;;;;;27.96;30.89;99769.00;4464062;32;35312;-81
2022/05/08 10:48:04;;;;;;;7.43;5.07;;;;;;;27.47;32.59;99764.63;4453739;32;34370;-82
2022/05/08 10:50:31;;;;;;;9.75;5.45;;;;;;;27.15;31.91;99770.50;4454421;32;34025;-73
2022/05/08 10:52:59;;;;;;;9.82;5.55;;;;;;;24.99;35.47;99766.41;4469137;32;35909;-81
2022/05/08 10:55:27;;;;;;;12.88;5.30;;;;;;;26.43;36.67;99768.44;4452756;32;34594;-73
2022/05/08 10:57:55;;;;;;;9.50;5.68;;;;;;;26.19;38.54;99766.53;4450272;32;33487;-76
2022/05/08 11:00:31;;;;;;;7.53;5.60;;;;;;;26.63;36.26;99764.41;4431265;32;32456;-73
2022/05/08 11:03:01;;;;;;;8.10;5.62;;;;;;;27.26;34.86;99767.88;4455555;32;35917;-74
2022/05/08 11:05:34;;;;;;;7.40;5.65;;;;;;;27.22;33.25;99759.22;4467189;32;34448;-74
2022/05/08 11:08:10;;;;;;;8.10;5.57;;;;;;;27.20;33.88;99763.84;4445711;32;33525;-75
2022/05/08 11:10:40;;;;;;;9.45;5.32;;;;;;;26.95;36.06;99754.09;4438565;32;34804;-76
2022/05/08 11:13:17;;;;;;;6.85;5.07;;;;;;;27.18;34.00;99754.25;4452424;32;35771;-75
2022/05/08 11:15:50;;;;;;;7.43;5.25;;;;;;;27.43;33.86;99750.63;4441640;32;34432;-75
2022/05/08 11:18:20;;;;;;;12.80;5.40;;;;;;;27.99;34.44;99756.22;4452815;32;34085;-75
2022/05/08 11:20:50;;;;;;;10.02;6.57;;;;;;;26.94;37.30;99751.53;4454250;32;34112;-74
2022/05/08 11:23:21;;;;;;;8.85;5.70;;;;;;;26.73;36.28;99745.91;4459081;32;35871;-77
2022/05/08 11:25:54;;;;;;;7.97;5.93;;;;;;;26.39;39.07;99749.13;4469250;32;34512;-75
2022/05/08 11:28:26;;;;;;;9.27;5.90;;;;;;;27.36;36.49;99747.56;4462894;32;34276;-76
2022/05/08 11:30:58;;;;;;;8.50;5.22;;;;;;;27.22;35.54;99734.31;4441832;32;33912;-75
2022/05/08 11:36:23;;;;;;;8.50;5.80;;;;;;;26.46;39.04;99741.53;4447797;32;34185;-74
2022/05/08 11:39:05;;;;;;;8.30;5.57;;;;;;;26.41;38.12;99731.16;4442039;32;32998;-75
2022/05/08 11:41:38;;;;;;;7.50;5.55;;;;;;;26.02;37.94;99734.81;4458925;32;34733;-77
2022/05/08 11:44:15;;;;;;;7.35;5.50;;;;;;;25.91;37.67;99739.03;4449849;32;35027;-74
2022/05/08 11:46:46;;;;;;;7.85;5.62;;;;;;;25.68;37.91;99734.41;4462171;32;34646;-74
2022/05/08 11:49:39;;;;;;;7.72;5.20;;;;;;;25.42;37.55;99738.81;4441252;32;31808;-77
2022/05/08 11:52:17;;;;;;;8.27;5.60;;;;;;;25.28;39.30;99737.91;4455094;32;34842;-78
2022/05/08 11:54:57;;;;;;;15.07;6.32;;;;;;;25.77;37.96;99732.94;4455267;32;35157;-75
2022/05/08 11:57:26;;;;;;;11.23;6.00;;;;;;;25.98;37.27;99734.16;4455315;32;35245;-76
2022/05/08 12:00:04;;;;;;;9.90;5.80;;;;;;;25.74;38.56;99736.66;4453514;32;33224;-75
2022/05/08 12:02:46;;;;;;;8.88;6.30;;;;;;;25.79;39.22;99739.88;4454672;32;34176;-79
2022/05/08 12:05:18;;;;;;;9.73;6.40;;;;;;;25.84;38.51;99729.72;4453312;32;35063;-74
2022/05/08 12:07:46;;;;;;;11.15;5.93;;;;;;;25.56;38.30;99730.75;4453224;32;34422;-78
2022/05/08 12:10:15;;;;;;;8.70;5.60;;;;;;;25.75;40.97;99725.03;4454291;32;33672;-78
2022/05/08 12:12:45;;;;;;;10.82;5.80;;;;;;;26.47;38.16;99728.09;4459182;32;33954;-78